Terminal Aerodrome Forecast
Issued by NWS

Home | Current Version | Previous Version | Text Only | Print | Product List | Glossary On
Versions: 1 2 3 4 5 6 7 8 9 10 11 12 13 14 15 16 17
000
FTUS46 KHNX 191731
TAFBFL
TAF
KBFL 191731Z 1918/2018 14005KT P6SM BKN150
     FM192100 32006KT P6SM BKN100
     FM192300 34005KT P6SM SCT050 BKN080
     FM200300 VRB04KT P6SM BKN050
      TEMPO 2008/2012 5SM BR BKN030
     FM201400 10004KT 2SM BR BKN030=

USA.gov is the U.S. government's official web portal to all federal, state and local government web resources and services.